Time;durP1;ratioP1;P1;durP2;ratioP2;P2;SDS_P1;SDS_P2;PMS_P1;PMS_P2;Temp;Humidity;BMP_temperature;BMP_pressure;BME280_temperature;BME280_humidity;BME280_pressure;Samples;Min_cycle;Max_cycle;Signal;HPM_P1;HPM_P2
2023/02/05 11:01:17;;;;;;;12.00;8.90;;;;;;;0.03;56.67;100968.41;232123;1196;139378;-72
2023/02/05 11:06:24;;;;;;;8.80;4.50;;;;;;;0.08;52.91;100968.66;231464;1193;139028;-72
2023/02/05 11:11:30;;;;;;;7.70;4.20;;;;;;;0.02;52.47;100960.73;230807;1198;139447;-71
2023/02/05 11:16:40;;;;;;;7.10;4.10;;;;;;;-0.05;52.17;100962.40;230672;1198;139000;-72
2023/02/05 11:21:46;;;;;;;12.80;6.00;;;;;;;-0.06;51.91;100964.82;230763;1197;139563;-71
2023/02/05 11:27:10;;;;;;;7.40;4.30;;;;;;;-0.05;51.57;100959.95;232046;1197;139696;-71
2023/02/05 11:32:35;;;;;;;8.30;4.20;;;;;;;-0.09;51.22;100960.59;230540;1197;140275;-74
2023/02/05 11:37:39;;;;;;;10.70;5.20;;;;;;;-0.09;51.17;100968.61;230029;1197;139118;-72
2023/02/05 11:42:51;;;;;;;9.60;5.10;;;;;;;-0.09;50.50;100962.69;229383;1199;138709;-74
2023/02/05 11:47:55;;;;;;;5.20;3.60;;;;;;;-0.20;50.61;100959.41;234132;1193;138957;-71
2023/02/05 11:53:12;;;;;;;6.70;4.00;;;;;;;-0.17;50.55;100955.79;231138;1193;139582;-74
2023/02/05 11:58:23;;;;;;;5.60;3.50;;;;;;;-0.13;50.77;100953.23;230493;1199;139266;-74
2023/02/05 12:03:39;;;;;;;6.50;3.80;;;;;;;-0.09;49.68;100950.31;234549;1196;138830;-74
2023/02/05 12:08:48;;;;;;;5.90;3.30;;;;;;;-0.03;49.36;100946.55;230297;1199;139296;-73
2023/02/05 12:14:21;;;;;;;4.10;2.50;;;;;;;0.08;48.88;100938.64;232682;1197;138804;-77
2023/02/05 12:19:32;;;;;;;5.70;3.40;;;;;;;0.05;48.37;100942.45;230803;1193;140085;-73
2023/02/05 12:24:47;;;;;;;7.20;4.10;;;;;;;-0.02;48.80;100940.79;232910;1196;138856;-75
2023/02/05 12:30:13;;;;;;;65.20;46.30;;;;;;;-0.01;50.32;100945.17;230761;1197;138872;-77
2023/02/05 12:35:22;;;;;;;12.50;5.90;;;;;;;0.35;51.79;100944.70;230658;1196;140538;-76
2023/02/05 12:40:53;;;;;;;9.40;4.60;;;;;;;0.34;49.63;100947.30;231249;1196;138868;-72
2023/02/05 12:45:57;;;;;;;7.50;4.20;;;;;;;0.23;49.15;100945.60;230112;1198;138983;-77
2023/02/05 12:51:21;;;;;;;7.90;3.90;;;;;;;0.14;49.32;100940.29;231906;1193;138615;-76
2023/02/05 12:56:52;;;;;;;7.80;4.60;;;;;;;0.10;49.87;100940.94;229378;1199;139199;-79
2023/02/05 13:02:22;;;;;;;9.90;5.30;;;;;;;0.15;49.91;100939.77;230510;1199;139255;-77
2023/02/05 13:14:34;;;;;;;6.60;4.70;;;;;;;0.22;50.53;100937.05;229571;1206;138709;-76
2023/02/05 13:19:55;;;;;;;7.80;4.40;;;;;;;0.43;56.43;100933.77;230826;1196;140485;-78
2023/02/05 13:30:46;;;;;;;7.50;4.00;;;;;;;0.70;50.77;100929.13;230124;1196;138862;-71
2023/02/05 13:36:19;;;;;;;6.20;4.30;;;;;;;0.60;50.65;100926.24;231534;1193;139379;-88
2023/02/05 13:41:41;;;;;;;7.90;4.50;;;;;;;0.57;50.92;100925.86;231095;1196;139006;-79
2023/02/05 13:47:04;;;;;;;7.40;3.90;;;;;;;0.52;50.59;100929.32;229858;1198;138873;-75
2023/02/05 13:52:13;;;;;;;7.50;4.00;;;;;;;0.43;50.65;100922.60;230706;1193;138915;-70
2023/02/05 13:58:03;;;;;;;6.40;4.10;;;;;;;0.39;50.65;100922.91;231557;1197;139594;-74
2023/02/05 14:03:08;;;;;;;7.10;4.50;;;;;;;0.39;50.91;100925.00;231423;1197;139622;-76
2023/02/05 14:08:23;;;;;;;7.30;4.80;;;;;;;0.39;51.17;100929.02;229853;1196;138505;-77
2023/02/05 14:13:33;;;;;;;7.10;4.70;;;;;;;0.36;51.00;100932.66;230188;1198;138723;-74
2023/02/05 14:18:39;;;;;;;8.00;4.70;;;;;;;0.33;51.06;100942.73;229571;1199;138899;-75
2023/02/05 14:23:46;;;;;;;8.20;5.30;;;;;;;0.29;51.41;100947.77;230841;1193;140438;-73
2023/02/05 14:28:51;;;;;;;12.20;8.20;;;;;;;0.31;51.85;100950.23;230994;1193;139261;-75
2023/02/05 14:34:26;;;;;;;6.50;4.40;;;;;;;0.43;52.96;100947.91;231643;1197;139214;-75
2023/02/05 14:39:33;;;;;;;9.10;5.00;;;;;;;0.34;51.70;100953.06;232084;1196;138505;-77
2023/02/05 14:44:41;;;;;;;8.20;5.20;;;;;;;0.27;51.57;100957.34;228990;1207;138857;-75
2023/02/05 14:49:47;;;;;;;9.90;6.20;;;;;;;0.16;51.07;100955.67;232042;1193;138461;-72
2023/02/05 14:55:12;;;;;;;14.90;8.00;;;;;;;0.04;51.59;100949.08;229337;1194;138837;-74
2023/02/05 15:00:33;;;;;;;10.70;6.10;;;;;;;-0.03;51.42;100949.34;231871;1197;139772;-72
2023/02/05 15:05:42;;;;;;;12.10;6.40;;;;;;;-0.10;55.35;100947.52;230048;1196;139573;-75
2023/02/05 15:11:13;;;;;;;9.70;5.70;;;;;;;0.53;55.38;100948.19;231092;1197;138951;-80
2023/02/05 15:16:20;;;;;;;10.90;6.30;;;;;;;0.31;52.71;100951.97;230228;1198;139301;-75
2023/02/05 15:21:48;;;;;;;10.70;5.90;;;;;;;0.18;52.18;100957.95;231255;1196;138645;-71
2023/02/05 15:41:24;;;;;;;13.80;7.10;;;;;;;0.02;52.31;100959.86;229417;1196;138798;-72
2023/02/05 15:47:23;;;;;;;13.60;8.20;;;;;;;-0.18;52.55;100965.73;230204;1196;139148;-72
2023/02/05 16:06:42;;;;;;;13.30;7.70;;;;;;;-0.46;53.59;100975.98;229440;1196;138807;-78
2023/02/05 16:41:34;;;;;;;;;;;;;;;1.01;53.70;100979.00;229791;1194;101789;-71
2023/02/05 16:47:33;;;;;;;18.80;10.90;;;;;;;0.60;53.48;100980.54;229670;1196;115121;-75
2023/02/05 17:08:54;;;;;;;;;;;;;;;;;;;;;
2023/02/05 17:15:33;;;;;;;20.50;11.20;;;;;;;1.52;54.65;101004.20;231807;1201;138802;-63
2023/02/05 17:29:30;;;;;;;;;;;;;;;;;;;;;
2023/02/05 17:43:40;;;;;;;;;;;;;;;;;;;;;
2023/02/05 17:49:20;;;;;;;23.20;11.90;;;;;;;0.09;55.14;101022.59;234471;1198;138300;-65
2023/02/05 19:06:15;;;;;;;76.30;44.20;;;;;;;-0.02;56.60;101076.89;233460;1209;634919;-66
2023/02/05 19:11:51;;;;;;;20.50;11.80;;;;;;;0.09;57.28;101079.30;235169;1194;137762;-68
2023/02/05 19:17:52;;;;;;;104.40;49.00;;;;;;;0.12;59.25;101077.42;235052;1195;138436;-69
2023/02/05 19:23:49;;;;;;;23.50;11.60;;;;;;;2.40;65.45;101060.48;235118;1195;138192;-69
2023/02/05 19:29:16;;;;;;;21.80;12.40;;;;;;;1.76;55.20;101069.61;235019;1196;138947;-65
2023/02/05 19:34:43;;;;;;;21.90;12.90;;;;;;;1.29;54.72;101075.73;235104;1195;138876;-66
2023/02/05 19:40:54;;;;;;;23.20;13.20;;;;;;;0.91;55.28;101083.40;235135;1195;138397;-67
2023/02/05 19:47:47;;;;;;;;;;;;;;;;;;;;;
2023/02/05 20:01:54;;;;;;;;;;;;;;;;;;;;;
2023/02/05 20:07:08;;;;;;;25.90;13.60;;;;;;;0.08;56.08;101075.45;235148;1193;138465;-69
2023/02/05 20:13:25;;;;;;;;;;;;;;;;;;;;;
2023/02/05 20:20:03;;;;;;;29.30;15.30;;;;;;;-0.01;56.58;101081.60;235179;1195;138825;-67
2023/02/05 20:26:32;;;;;;;;;;;;;;;;;;;;;
2023/02/05 20:32:49;;;;;;;26.50;14.00;;;;;;;-0.11;57.26;101091.40;235204;1198;138275;-66
2023/02/05 21:06:15;;;;;;;31.20;15.00;;;;;;;-0.20;56.77;101128.61;232857;1210;639068;-70
2023/02/05 21:25:32;;;;;;;;;;;;;;;;;;;;;
2023/02/05 21:31:50;;;;;;;24.60;13.30;;;;;;;-0.23;56.88;101140.94;235129;1196;138317;-68
2023/02/05 21:38:43;;;;;;;20.50;10.30;;;;;;;-0.23;56.68;101156.64;234533;1202;138552;-69
2023/02/05 21:45:26;;;;;;;18.60;11.10;;;;;;;-0.26;56.40;101156.08;234498;1198;138875;-68
2023/02/05 21:51:47;;;;;;;;;;;;;;;;;;;;;
2023/02/05 21:59:08;;;;;;;21.00;11.30;;;;;;;-0.26;56.11;101181.54;235064;1194;138661;-67
2023/02/05 22:19:04;;;;;;;28.80;15.50;;;;;;;-0.29;56.89;101205.04;235384;1192;139370;-67
2023/02/05 22:39:46;;;;;;;;;;;;;;;;;;;;;
2023/02/05 22:54:00;;;;;;;30.30;14.90;;;;;;;-0.33;57.74;101206.19;234757;1198;138714;-66
2023/02/05 23:04:08;;;;;;;27.00;14.60;;;;;;;-0.27;58.05;101201.40;227280;1208;648397;-71
2023/02/05 23:09:15;;;;;;;27.50;14.70;;;;;;;-0.22;57.16;101208.63;230537;1203;138443;-72
2023/02/05 23:14:54;;;;;;;29.50;14.70;;;;;;;-0.25;57.04;101208.75;228588;1200;137810;-73
2023/02/05 23:20:32;;;;;;;28.90;14.90;;;;;;;-0.38;57.04;101215.16;229996;1199;137771;-70
2023/02/05 23:26:41;;;;;;;23.10;13.30;;;;;;;-0.42;57.57;101218.57;230280;1201;138675;-73
2023/02/05 23:31:45;;;;;;;27.60;14.40;;;;;;;-0.43;57.75;101220.30;229634;1197;110620;-72
2023/02/05 23:36:48;;;;;;;31.20;14.70;;;;;;;-0.45;57.87;101218.86;229323;1199;137799;-74
2023/02/05 23:41:51;;;;;;;27.60;14.00;;;;;;;-0.45;57.20;101225.31;228777;1198;137353;-75
2023/02/05 23:47:30;;;;;;;26.20;14.70;;;;;;;-0.40;57.31;101224.88;229576;1201;110681;-74
2023/02/05 23:53:06;;;;;;;28.50;13.50;;;;;;;-0.41;57.28;101227.48;230244;1197;137602;-74
2023/02/05 23:58:47;;;;;;;26.70;14.10;;;;;;;-0.53;57.32;101239.64;228609;1202;138502;-73
